Puerto Banus, Marbella

>

This is an optional block (switch it off / on) in the settings - file ($SITE['banners'] = false;)

You can display ads, any other important text or photo’s using text / html or PHP code.

You can place one or more at the top and or bottom and it can all be different for content / size .



Thunder radar more information blitzortung!


Rain radar  rain snow radar


Visit our other weather sites:

Documentation for the template used

MeteoibericaRed estaciones Meteorologicas

MeteoclimaticRed estaciones Meteorologicas



No particular awareness of the weather is required.    There are no Weather-warnings

Nearby METAR Reports

   
EBAW - Antwerp
Updated: 18-01-2019 19:20
Mist, Mostly Cloudy  
Mist, Mostly Cloudy  
   Wind: SE 7.4 km/h
Wind: SE 7.4 km/h
Temperature: 0°C
Wind Chill: -3°C
Dew Point: -1°C
Humidity: 93%
Barometer: 1019 hPa
Clouds: Mostly Cloudy
Visibility: 2 km
Cloud details: Mostly Cloudy 200 ft
EBAW 181820Z 13004KT 2000 BR BKN002 M00/M01 Q1019 NOSIG
EBLG - Liège
Updated: 18-01-2019 19:20
Few Clouds  
Few Clouds  
   Wind: SSE 7.4 km/h
Wind: SSE 7.4 km/h
Temperature: 1°C
Wind Chill: -1°C
Dew Point: -4°C
Humidity: 70%
Barometer: 1019 hPa
Clouds: Few Clouds
Visibility: More than 10 km
Cloud details: Few Clouds 3000 ft
EBLG 181820Z 15004KT 9999 FEW030 01/M04 Q1019 NOSIG
EBCV - Mons/Bergen
Updated: 18-01-2019 19:39
Mostly Cloudy  
Mostly Cloudy  
   Wind: South 9.3 km/h
Wind: South 9.3 km/h
Temperature: 0°C
Wind Chill: -3°C
Dew Point: -1°C
Humidity: 93%
Barometer: 1019 hPa
Clouds: Mostly Cloudy
Visibility: 7 km
Cloud details: Mostly Cloudy 14000 ft
EBCV 181839Z AUTO 17005KT 7000 BKN140/// M00/M01 Q1019 WHT
EHBK - Maastricht
Updated: 18-01-2019 19:25
Partly Cloudy  
Partly Cloudy  
   Wind: East 9.3 km/h
Wind: East 9.3 km/h
Temperature: 0°C
Wind Chill: -3°C
Dew Point: -1°C
Humidity: 93%
Barometer: 1019 hPa
Clouds: Partly Cloudy
Visibility: 8 km
Cloud details: Partly Cloudy
EHBK 181825Z AUTO 09005KT 8000 NSC M00/M01 Q1019 NOSIG
ELLX - Luxemburg
Updated: 18-01-2019 19:20
Clear  
Clear  
   Wind: ENE 9.3 km/h
Wind: ENE 9.3 km/h
Temperature: -1°C
Wind Chill: -4°C
Dew Point: -4°C
Humidity: 80%
Barometer: 1018 hPa
Visibility: More than 10 km
Cloud details: Clear
ELLX 181820Z 06005KT CAVOK M01/M04 Q1018 NOSIG
EBOS - Oostende
Updated: 18-01-2019 19:20
Few Clouds  
Few Clouds  
   Wind: SSE 14.8 km/h
Wind: SSE 14.8 km/h
Temperature: 1°C
Wind Chill: -3°C
Dew Point: 0°C
Humidity: 93%
Barometer: 1018 hPa
Clouds: Few Clouds
Visibility: More than 10 km
Cloud details: Few Clouds 1300 ft
EBOS 181820Z 15008KT 9999 FEW013 01/M00 Q1018 NOSIG

Script developed by  Saratoga-weather.org Adapted for the template by  Weerstation Leuven

You find our weather info also at:

Weather Underground

Iberian Peninsula Weather Network